createdAt,value
2023-05-18T00:02:21.440Z,97067.75
2023-05-18T00:04:48.525Z,97063.34
2023-05-18T00:07:15.533Z,97056.16
2023-05-18T00:09:42.463Z,97063.34
2023-05-18T00:12:10.001Z,97056.16
2023-05-18T00:14:37.315Z,97057.78
2023-05-18T00:17:04.266Z,97052.72
2023-05-18T00:19:31.548Z,97057.09
2023-05-18T00:21:58.580Z,97049.59
2023-05-18T00:24:25.567Z,97039.81
2023-05-18T00:26:52.651Z,97052.22
2023-05-18T00:29:19.738Z,97040.41
2023-05-18T00:31:46.706Z,97046.97
2023-05-18T00:34:15.908Z,97049.28
2023-05-18T00:36:42.997Z,97049.56
2023-05-18T00:39:10.202Z,97042.41
2023-05-18T00:41:37.195Z,97038.81
2023-05-18T00:44:05.006Z,97046.47
2023-05-18T00:46:32.732Z,97045.66
2023-05-18T00:49:01.982Z,97041.41
2023-05-18T00:51:29.919Z,97043.69
2023-05-18T00:53:57.573Z,97044.38
2023-05-18T00:56:25.027Z,97037.16
2023-05-18T00:58:57.192Z,97045.66
2023-05-18T01:01:34.618Z,97032.56
2023-05-18T01:04:04.015Z,97035.19
2023-05-18T01:06:36.040Z,97035.19
2023-05-18T01:09:06.916Z,97035.53
2023-05-18T01:11:56.614Z,97037.50
2023-05-18T01:14:50.004Z,97034.22
2023-05-18T01:17:40.540Z,97028.69
2023-05-18T01:20:33.526Z,97029.31
2023-05-18T01:23:44.856Z,97027.38
2023-05-18T01:26:29.846Z,97033.56
2023-05-18T01:29:04.282Z,97033.91
2023-05-18T01:31:31.497Z,97035.88
2023-05-18T01:33:58.821Z,97039.16
2023-05-18T01:36:25.951Z,97034.88
2023-05-18T01:38:53.735Z,97043.22
2023-05-18T01:41:25.681Z,97042.41
2023-05-18T01:44:19.362Z,97038.81
2023-05-18T01:46:55.150Z,97032.28
2023-05-18T01:49:43.550Z,97026.06
2023-05-18T01:52:16.854Z,97026.53
2023-05-18T01:54:46.145Z,97014.94
2023-05-18T01:57:13.086Z,97020.16
2023-05-18T01:59:41.445Z,97017.84
2023-05-18T02:02:08.854Z,97023.09
2023-05-18T02:04:35.869Z,97018.53
2023-05-18T02:07:03.275Z,97023.94
2023-05-18T02:09:30.155Z,97021.78
2023-05-18T02:11:56.998Z,97025.22
2023-05-18T02:14:23.864Z,97024.41
2023-05-18T02:16:53.041Z,97015.75
2023-05-18T02:19:21.323Z,97022.44
2023-05-18T02:21:48.389Z,97015.59
2023-05-18T02:24:15.311Z,97013.94
2023-05-18T02:26:42.297Z,97023.09
2023-05-18T02:29:11.990Z,97014.59
2023-05-18T02:31:39.219Z,97020.81
2023-05-18T02:34:06.874Z,97015.25
2023-05-18T02:36:37.266Z,97014.41
2023-05-18T02:39:04.960Z,97013.28
2023-05-18T02:41:32.425Z,97007.06
2023-05-18T02:43:59.581Z,97006.75
2023-05-18T02:46:26.573Z,97009.69
2023-05-18T02:48:53.702Z,97013.28
2023-05-18T02:51:21.698Z,97010.31
2023-05-18T02:53:48.960Z,97007.88
2023-05-18T02:56:17.721Z,97015.72
2023-05-18T02:58:45.112Z,96999.06
2023-05-18T03:01:12.369Z,97012.00
2023-05-18T03:03:42.095Z,97011.16
2023-05-18T03:06:09.845Z,97007.41
2023-05-18T03:08:37.298Z,97008.72
2023-05-18T03:11:04.608Z,97013.94
2023-05-18T03:13:31.460Z,97014.09
2023-05-18T03:15:58.606Z,97008.53
2023-05-18T03:18:25.666Z,97010.00
2023-05-18T03:20:52.723Z,97011.97
2023-05-18T03:23:20.371Z,97013.28
2023-05-18T03:25:47.245Z,97012.94
2023-05-18T03:28:14.091Z,97017.84
2023-05-18T03:30:40.941Z,97007.72
2023-05-18T03:33:07.874Z,97020.47
2023-05-18T03:35:34.742Z,97012.63
2023-05-18T03:38:01.695Z,97006.72
2023-05-18T03:40:29.252Z,97012.94
2023-05-18T03:42:56.219Z,97015.56
2023-05-18T03:45:23.305Z,97019.16
2023-05-18T03:47:50.523Z,97018.84
2023-05-18T03:50:17.419Z,97013.63
2023-05-18T03:52:44.789Z,97019.81
2023-05-18T03:55:12.142Z,97021.47
2023-05-18T03:57:39.432Z,97025.88
2023-05-18T04:00:13.166Z,97016.22
2023-05-18T04:02:40.587Z,97021.47
2023-05-18T04:05:08.350Z,97027.69
2023-05-18T04:07:44.059Z,97012.63
2023-05-18T04:10:13.097Z,97017.53
2023-05-18T04:12:40.773Z,97026.38
2023-05-18T04:15:08.453Z,97024.25
2023-05-18T04:17:35.731Z,97035.19
2023-05-18T04:20:11.535Z,97025.41
2023-05-18T04:22:43.278Z,97028.03
2023-05-18T04:25:13.918Z,97025.06
2023-05-18T04:27:43.426Z,97028.97
2023-05-18T04:30:11.838Z,97027.16
2023-05-18T04:32:42.696Z,97029.94
2023-05-18T04:35:11.611Z,97030.06
2023-05-18T04:37:42.848Z,97026.94
2023-05-18T04:40:14.170Z,97036.41
2023-05-18T04:42:48.485Z,97045.56
2023-05-18T04:45:20.422Z,97043.03
2023-05-18T04:47:53.240Z,97044.44
2023-05-18T04:50:23.639Z,97042.47
2023-05-18T04:52:51.850Z,97053.25
2023-05-18T04:55:28.696Z,97050.59
2023-05-18T04:57:57.251Z,97040.66
2023-05-18T05:00:26.229Z,97044.19
2023-05-18T05:02:54.327Z,97042.19
2023-05-18T05:05:22.760Z,97055.38
2023-05-18T05:07:51.669Z,97046.59
2023-05-18T05:10:20.677Z,97052.06
2023-05-18T05:12:49.701Z,97041.47
2023-05-18T05:15:17.719Z,97045.97
2023-05-18T05:17:46.221Z,97043.00
2023-05-18T05:20:13.121Z,97045.00
2023-05-18T05:22:40.165Z,97035.41
2023-05-18T05:25:08.334Z,97038.31
2023-05-18T05:27:35.305Z,97045.00
2023-05-18T05:30:02.618Z,97037.22
2023-05-18T05:32:29.590Z,97048.81
2023-05-18T05:34:56.500Z,97044.59
2023-05-18T05:37:23.379Z,97046.81
2023-05-18T05:39:50.217Z,97048.00
2023-05-18T05:42:17.159Z,97048.47
2023-05-18T05:44:44.872Z,97041.75
2023-05-18T05:47:11.902Z,97048.63
2023-05-18T05:49:38.814Z,97046.53
2023-05-18T05:52:06.134Z,97047.44
2023-05-18T05:54:33.012Z,97049.91
2023-05-18T05:57:00.195Z,97042.97
2023-05-18T05:59:27.200Z,97047.44
2023-05-18T06:01:54.100Z,97042.53
2023-05-18T06:04:21.114Z,97040.56
2023-05-18T06:06:49.375Z,97050.75
2023-05-18T06:09:16.401Z,97037.91
2023-05-18T06:11:43.364Z,97032.66
2023-05-18T06:14:10.198Z,97035.50
2023-05-18T06:16:37.103Z,97038.06
2023-05-18T06:19:04.125Z,97044.09
2023-05-18T06:21:31.672Z,97042.91
2023-05-18T06:23:58.527Z,97045.75
2023-05-18T06:26:25.360Z,97047.38
2023-05-18T06:28:52.209Z,97057.88
2023-05-18T06:31:19.182Z,97050.09
2023-05-18T06:33:46.050Z,97056.88
2023-05-18T06:36:12.929Z,97056.75
2023-05-18T06:38:39.789Z,97060.78
2023-05-18T06:41:06.668Z,97045.91
2023-05-18T06:43:33.519Z,97051.84
2023-05-18T06:46:00.408Z,97063.75
2023-05-18T06:48:28.612Z,97053.38
2023-05-18T06:50:56.119Z,97052.66
2023-05-18T06:53:23.412Z,97054.72
2023-05-18T06:55:50.419Z,97055.31
2023-05-18T06:58:17.323Z,97052.63
2023-05-18T07:00:44.197Z,97055.44
2023-05-18T07:03:11.361Z,97046.88
2023-05-18T07:05:39.571Z,97043.69
2023-05-18T07:08:07.226Z,97056.75
2023-05-18T07:10:35.648Z,97055.81
2023-05-18T07:13:02.609Z,97052.16
2023-05-18T07:15:29.889Z,97049.78
2023-05-18T07:17:57.154Z,97052.44
2023-05-18T07:20:26.171Z,97060.63
2023-05-18T07:22:55.265Z,97052.06
2023-05-18T07:25:23.198Z,97051.59
2023-05-18T07:27:54.459Z,97057.31
2023-05-18T07:30:22.599Z,97054.44
2023-05-18T07:32:51.029Z,97059.63
2023-05-18T07:35:20.187Z,97051.22
2023-05-18T07:37:47.064Z,97053.00
2023-05-18T07:40:13.971Z,97048.25
2023-05-18T07:42:41.799Z,97048.19
2023-05-18T07:45:09.583Z,97053.19
2023-05-18T07:47:36.560Z,97051.19
2023-05-18T07:50:03.893Z,97053.44
2023-05-18T07:52:30.986Z,97052.03
2023-05-18T07:54:57.903Z,97044.34
2023-05-18T07:57:25.320Z,97046.50
2023-05-18T07:59:52.348Z,97058.03
2023-05-18T08:02:19.976Z,97047.72
2023-05-18T08:04:48.083Z,97045.84
2023-05-18T08:07:15.070Z,97048.19
2023-05-18T08:09:41.942Z,97048.94
2023-05-18T08:12:09.165Z,97047.19
2023-05-18T08:14:36.329Z,97039.91
2023-05-18T08:17:04.782Z,97044.47
2023-05-18T08:19:32.025Z,97040.72
2023-05-18T08:21:59.132Z,97046.31
2023-05-18T08:24:26.026Z,97039.00
2023-05-18T08:26:53.151Z,97040.88
2023-05-18T08:29:20.147Z,97044.75
2023-05-18T08:31:49.255Z,97045.53
2023-05-18T08:34:16.695Z,97049.94
2023-05-18T08:36:45.627Z,97045.72
2023-05-18T08:39:13.155Z,97051.50
2023-05-18T08:41:55.102Z,97048.44
2023-05-18T08:44:26.453Z,97052.13
2023-05-18T08:46:54.808Z,97049.28
2023-05-18T08:49:22.144Z,97047.72
2023-05-18T08:51:57.122Z,97040.19
2023-05-18T08:54:24.500Z,97036.31
2023-05-18T08:56:53.672Z,97035.00
2023-05-18T08:59:25.604Z,97037.97
2023-05-18T09:01:54.926Z,97029.97
2023-05-18T09:04:22.399Z,97034.59
2023-05-18T09:06:49.867Z,97029.97
2023-05-18T09:09:18.129Z,97028.03
2023-05-18T09:11:47.088Z,97032.47
2023-05-18T09:14:14.365Z,97023.28
2023-05-18T09:16:41.478Z,97027.91
2023-05-18T09:19:08.409Z,97027.94
2023-05-18T09:21:35.761Z,97027.50
2023-05-18T09:24:02.730Z,97026.22
2023-05-18T09:26:29.694Z,97022.84
2023-05-18T09:28:56.586Z,97026.34
2023-05-18T09:31:24.869Z,97026.59
2023-05-18T09:33:52.676Z,97027.19
2023-05-18T09:36:26.090Z,97032.69
2023-05-18T09:38:53.421Z,97032.03
2023-05-18T09:41:20.295Z,97031.53
2023-05-18T09:43:51.422Z,97024.03
2023-05-18T09:46:20.620Z,97036.78
2023-05-18T09:48:53.066Z,97023.44
2023-05-18T09:51:21.809Z,97030.47
2023-05-18T09:53:56.922Z,97027.56
2023-05-18T09:56:27.369Z,97035.88
2023-05-18T09:58:55.161Z,97033.78
2023-05-18T10:01:22.164Z,97027.72
2023-05-18T10:03:49.936Z,97029.19
2023-05-18T10:06:21.069Z,97028.81
2023-05-18T10:08:48.082Z,97034.22
2023-05-18T10:11:19.836Z,97017.09
2023-05-18T10:13:47.126Z,97022.44
2023-05-18T10:16:16.720Z,97025.56
2023-05-18T10:18:44.261Z,97026.09
2023-05-18T10:21:14.340Z,97023.50
2023-05-18T10:23:41.666Z,97026.09
2023-05-18T10:26:10.039Z,97029.38
2023-05-18T10:28:47.231Z,97026.28
2023-05-18T10:31:16.745Z,97024.78
2023-05-18T10:33:44.758Z,97026.28
2023-05-18T10:36:12.087Z,97022.59
2023-05-18T10:38:43.501Z,97022.91
2023-05-18T10:41:12.459Z,97021.88
2023-05-18T10:43:41.648Z,97023.63
2023-05-18T10:46:09.673Z,97029.06
2023-05-18T10:48:40.457Z,97018.03
2023-05-18T10:51:08.326Z,97014.19
2023-05-18T10:53:36.848Z,97020.69
2023-05-18T10:56:04.106Z,97009.53
2023-05-18T10:58:32.099Z,97017.19
2023-05-18T11:01:06.282Z,97020.25
2023-05-18T11:03:33.886Z,97013.97
2023-05-18T11:06:10.319Z,97013.56
2023-05-18T11:08:51.761Z,97018.50
2023-05-18T11:11:26.202Z,97016.75
2023-05-18T11:13:53.175Z,97012.47
2023-05-18T11:16:20.949Z,97009.13
2023-05-18T11:18:51.529Z,97005.66
2023-05-18T11:21:22.176Z,97009.88
2023-05-18T11:24:24.817Z,97006.06
2023-05-18T11:27:00.314Z,97000.41
2023-05-18T11:29:36.059Z,96995.28
2023-05-18T11:32:04.833Z,97009.50
2023-05-18T11:34:45.461Z,96999.50
2023-05-18T11:37:15.005Z,96997.41
2023-05-18T11:39:55.426Z,97006.56
2023-05-18T11:42:34.133Z,97004.25
2023-05-18T11:45:08.887Z,97003.19
2023-05-18T11:47:37.010Z,96984.44
2023-05-18T11:50:08.557Z,97002.16
2023-05-18T11:52:51.712Z,96997.56
2023-05-18T11:55:21.036Z,96996.34
2023-05-18T11:57:52.403Z,96996.88
2023-05-18T12:00:21.016Z,97008.03
2023-05-18T12:02:49.255Z,97001.56
2023-05-18T12:05:17.161Z,97008.72
2023-05-18T12:07:45.086Z,97008.16
2023-05-18T12:10:17.468Z,97003.19
2023-05-18T12:12:48.300Z,97004.09
2023-05-18T12:15:17.181Z,96998.78
2023-05-18T12:17:47.283Z,96998.56
2023-05-18T12:20:27.266Z,96994.75
2023-05-18T12:22:55.965Z,96994.88
2023-05-18T12:25:25.887Z,97005.03
2023-05-18T12:27:54.385Z,96995.09
2023-05-18T12:30:34.457Z,96995.22
2023-05-18T12:33:02.526Z,96997.66
2023-05-18T12:35:31.496Z,96998.56
2023-05-18T12:38:03.153Z,96998.53
2023-05-18T12:40:44.475Z,97003.75
2023-05-18T12:43:11.847Z,97009.44
2023-05-18T12:45:38.886Z,96990.72
2023-05-18T12:48:11.124Z,96999.25
2023-05-18T12:50:53.068Z,97013.94
2023-05-18T12:53:20.048Z,96995.88
2023-05-18T12:55:59.768Z,96996.00
2023-05-18T12:58:26.705Z,96996.03
2023-05-18T13:00:53.629Z,96994.38
2023-05-18T13:03:22.015Z,96991.13
2023-05-18T13:06:07.025Z,96985.25
2023-05-18T13:08:36.137Z,96997.31
2023-05-18T13:11:14.444Z,96999.97
2023-05-18T13:14:14.323Z,96994.41
2023-05-18T13:16:45.637Z,96989.69
2023-05-18T13:19:18.988Z,96986.91
2023-05-18T13:21:47.087Z,96987.91
2023-05-18T13:24:14.490Z,96981.06
2023-05-18T13:26:41.472Z,96991.41
2023-05-18T13:29:08.683Z,96982.34
2023-05-18T13:31:36.020Z,96981.66
2023-05-18T13:34:03.652Z,96982.88
2023-05-18T13:36:33.632Z,96985.63
2023-05-18T13:39:01.455Z,96979.38
2023-05-18T13:41:28.358Z,96989.03
2023-05-18T13:43:55.357Z,96972.75
2023-05-18T13:46:22.316Z,96974.00
2023-05-18T13:48:49.205Z,96975.50
2023-05-18T13:51:16.266Z,96968.50
2023-05-18T13:53:43.232Z,96964.66
2023-05-18T13:56:10.082Z,96955.41
2023-05-18T13:58:36.987Z,96961.66
2023-05-18T14:01:07.985Z,96954.59
2023-05-18T14:03:36.551Z,96957.66
2023-05-18T14:06:03.844Z,96956.97
2023-05-18T14:08:30.678Z,96957.44
2023-05-18T14:10:57.540Z,96949.72
2023-05-18T14:13:24.397Z,96948.41
2023-05-18T14:15:51.483Z,96948.06
2023-05-18T14:18:18.430Z,96943.19
2023-05-18T14:20:47.466Z,96944.28
2023-05-18T14:23:14.496Z,96949.34
2023-05-18T14:25:43.534Z,96951.44
2023-05-18T14:28:10.413Z,96945.78
2023-05-18T14:30:37.439Z,96950.41
2023-05-18T14:33:04.600Z,96950.88
2023-05-18T14:35:31.617Z,96944.09
2023-05-18T14:37:58.501Z,96937.09
2023-05-18T14:40:25.457Z,96946.72
2023-05-18T14:42:53.780Z,96935.09
2023-05-18T14:45:21.156Z,96933.19
2023-05-18T14:47:48.224Z,96936.66
2023-05-18T14:50:15.306Z,96922.53
2023-05-18T14:52:42.142Z,96933.22
2023-05-18T14:55:09.574Z,96935.97
2023-05-18T14:57:36.475Z,96928.16
2023-05-18T15:00:04.430Z,96936.03
2023-05-18T15:02:31.376Z,96928.06
2023-05-18T15:04:58.333Z,96925.19
2023-05-18T15:07:25.206Z,96941.28
2023-05-18T15:09:52.145Z,96937.84
2023-05-18T15:12:19.662Z,96943.66
2023-05-18T15:14:46.611Z,96941.50
2023-05-18T15:17:14.967Z,96943.59
2023-05-18T15:19:41.924Z,96947.66
2023-05-18T15:22:09.009Z,96945.91
2023-05-18T15:24:35.943Z,96940.22
2023-05-18T15:27:03.472Z,96936.06
2023-05-18T15:29:30.492Z,96938.25
2023-05-18T15:31:57.398Z,96945.31
2023-05-18T15:34:24.302Z,96940.09
2023-05-18T15:36:53.336Z,96942.84
2023-05-18T15:39:20.753Z,96941.03
2023-05-18T15:41:47.631Z,96940.69
2023-05-18T15:44:14.549Z,96945.56
2023-05-18T15:46:41.422Z,96948.53
2023-05-18T15:49:08.332Z,96945.63
2023-05-18T15:51:35.233Z,96948.53
2023-05-18T15:54:02.079Z,96944.81
2023-05-18T15:56:28.962Z,96946.09
2023-05-18T15:58:55.894Z,96943.09
2023-05-18T16:01:22.882Z,96950.56
2023-05-18T16:03:49.846Z,96943.84
2023-05-18T16:06:18.459Z,96945.97
2023-05-18T16:08:46.090Z,96950.25
2023-05-18T16:11:13.053Z,96941.13
2023-05-18T16:13:39.916Z,96946.59
2023-05-18T16:16:08.843Z,96933.75
2023-05-18T16:18:36.577Z,96936.41
2023-05-18T16:21:03.634Z,96943.19
2023-05-18T16:23:30.510Z,96937.31
2023-05-18T16:25:57.587Z,96933.38
2023-05-18T16:28:24.456Z,96934.81
2023-05-18T16:30:51.313Z,96930.91
2023-05-18T16:33:18.210Z,96926.97
2023-05-18T16:35:45.111Z,96932.28
2023-05-18T16:38:13.236Z,96936.91
2023-05-18T16:40:40.203Z,96938.19
2023-05-18T16:43:07.064Z,96928.19
2023-05-18T16:45:33.998Z,96931.41
2023-05-18T16:48:03.593Z,96938.91
2023-05-18T16:50:31.620Z,96930.22
2023-05-18T16:52:58.715Z,96934.94
2023-05-18T16:55:25.817Z,96933.28
2023-05-18T16:57:53.050Z,96939.34
2023-05-18T17:00:20.755Z,96939.41
2023-05-18T17:02:47.839Z,96931.16
2023-05-18T17:05:17.122Z,96943.03
2023-05-18T17:07:44.063Z,96939.28
2023-05-18T17:10:11.131Z,96947.75
2023-05-18T17:12:38.449Z,96949.19
2023-05-18T17:15:06.020Z,96949.53
2023-05-18T17:17:32.958Z,96944.66
2023-05-18T17:19:59.864Z,96945.34
2023-05-18T17:22:26.740Z,96948.53
2023-05-18T17:24:53.751Z,96953.97
2023-05-18T17:27:21.481Z,96948.06
2023-05-18T17:29:48.314Z,96954.50
2023-05-18T17:32:15.531Z,96952.88
2023-05-18T17:34:42.401Z,96946.59
2023-05-18T17:37:09.352Z,96953.97
2023-05-18T17:39:36.200Z,96950.31
2023-05-18T17:42:03.309Z,96954.72
2023-05-18T17:44:30.274Z,96952.22
2023-05-18T17:46:57.985Z,96952.78
2023-05-18T17:49:24.968Z,96953.38
2023-05-18T17:51:52.382Z,96952.13
2023-05-18T17:54:19.255Z,96959.91
2023-05-18T17:56:46.582Z,96957.97
2023-05-18T17:59:13.616Z,96959.38
2023-05-18T18:01:40.871Z,96956.16
2023-05-18T18:04:07.786Z,96953.84
2023-05-18T18:06:35.691Z,96962.25
2023-05-18T18:09:04.646Z,96955.75
2023-05-18T18:11:31.700Z,96954.56
2023-05-18T18:13:58.658Z,96957.91
2023-05-18T18:16:25.689Z,96959.41
2023-05-18T18:18:52.759Z,96958.66
2023-05-18T18:21:19.711Z,96964.22
2023-05-18T18:23:46.621Z,96971.72
2023-05-18T18:26:13.488Z,96971.06
2023-05-18T18:28:40.466Z,96976.00
2023-05-18T18:31:08.233Z,96979.59
2023-05-18T18:33:35.392Z,96987.09
2023-05-18T18:36:04.366Z,96984.78
2023-05-18T18:38:33.799Z,96991.13
2023-05-18T18:41:04.102Z,96990.31
2023-05-18T18:43:31.390Z,96999.28
2023-05-18T18:45:59.151Z,96995.28
2023-05-18T18:48:26.229Z,96995.25
2023-05-18T18:50:53.717Z,97004.63
2023-05-18T18:53:20.619Z,96999.78
2023-05-18T18:55:47.563Z,96989.16
2023-05-18T18:58:14.457Z,96986.31
2023-05-18T19:00:41.496Z,97007.13
2023-05-18T19:03:09.909Z,96997.53
2023-05-18T19:05:37.413Z,97005.50
2023-05-18T19:08:04.412Z,96996.53
2023-05-18T19:10:32.857Z,97000.00
2023-05-18T19:13:04.909Z,97009.94
2023-05-18T19:15:33.870Z,97012.00
2023-05-18T19:18:01.192Z,97007.50
2023-05-18T19:20:28.382Z,97012.19
2023-05-18T19:22:55.381Z,97016.28
2023-05-18T19:25:24.521Z,97020.94
2023-05-18T19:27:53.115Z,97024.81
2023-05-18T19:30:21.576Z,97028.03
2023-05-18T19:32:53.289Z,97028.03
2023-05-18T19:35:21.799Z,97025.59
2023-05-18T19:37:48.724Z,97031.13
2023-05-18T19:40:16.702Z,97033.34
2023-05-18T19:42:43.970Z,97033.56
2023-05-18T19:45:10.862Z,97041.25
2023-05-18T19:47:37.809Z,97040.00
2023-05-18T19:50:06.159Z,97046.13
2023-05-18T19:52:33.511Z,97051.41
2023-05-18T19:55:00.556Z,97048.97
2023-05-18T19:57:27.548Z,97045.31
2023-05-18T19:59:54.441Z,97038.81
2023-05-18T20:02:21.381Z,97048.38
2023-05-18T20:04:48.445Z,97058.72
2023-05-18T20:07:15.350Z,97059.50
2023-05-18T20:09:42.216Z,97049.38
2023-05-18T20:12:09.120Z,97050.38
2023-05-18T20:14:36.717Z,97058.69
2023-05-18T20:17:04.658Z,97059.94
2023-05-18T20:19:32.440Z,97058.69
2023-05-18T20:21:59.419Z,97059.06
2023-05-18T20:24:26.290Z,97058.38
2023-05-18T20:26:53.782Z,97047.72
2023-05-18T20:29:20.669Z,97045.69
2023-05-18T20:31:47.782Z,97051.38
2023-05-18T20:34:14.783Z,97043.63
2023-05-18T20:36:41.629Z,97042.72
2023-05-18T20:39:08.988Z,97049.94
2023-05-18T20:41:39.930Z,97052.53
2023-05-18T20:44:10.548Z,97058.47
2023-05-18T20:46:38.369Z,97059.28
2023-05-18T20:49:05.568Z,97055.81
2023-05-18T20:51:32.482Z,97062.31
2023-05-18T20:53:59.332Z,97057.41
2023-05-18T20:56:26.726Z,97053.34
2023-05-18T20:58:54.467Z,97055.81
2023-05-18T21:01:23.913Z,97062.22
2023-05-18T21:03:50.902Z,97064.72
2023-05-18T21:06:17.901Z,97052.91
2023-05-18T21:08:45.634Z,97057.16
2023-05-18T21:11:12.583Z,97056.16
2023-05-18T21:13:39.526Z,97063.06
2023-05-18T21:16:08.349Z,97064.22
2023-05-18T21:18:35.964Z,97056.91
2023-05-18T21:21:03.537Z,97057.66
2023-05-18T21:23:30.807Z,97054.59
2023-05-18T21:25:58.093Z,97050.31
2023-05-18T21:28:25.040Z,97048.88
2023-05-18T21:30:52.537Z,97048.63
2023-05-18T21:33:19.811Z,97042.66
2023-05-18T21:35:46.876Z,97035.97
2023-05-18T21:38:13.886Z,97043.22
2023-05-18T21:40:43.529Z,97045.72
2023-05-18T21:43:10.968Z,97044.06
2023-05-18T21:45:38.605Z,97043.28
2023-05-18T21:48:06.216Z,97038.13
2023-05-18T21:50:34.899Z,97038.91
2023-05-18T21:53:05.682Z,97037.72
2023-05-18T21:55:32.940Z,97038.13
2023-05-18T21:58:00.159Z,97036.47
2023-05-18T22:00:27.232Z,97038.13
2023-05-18T22:02:54.462Z,97029.19
2023-05-18T22:05:21.490Z,97029.16
2023-05-18T22:07:49.171Z,97029.56
2023-05-18T22:10:18.001Z,97029.56
2023-05-18T22:12:45.175Z,97031.97
2023-05-18T22:15:12.499Z,97033.16
2023-05-18T22:17:39.488Z,97026.97
2023-05-18T22:20:09.391Z,97020.13
2023-05-18T22:22:36.377Z,97020.53
2023-05-18T22:25:03.486Z,97018.41
2023-05-18T22:27:30.465Z,97023.75
2023-05-18T22:29:57.492Z,97022.25
2023-05-18T22:32:24.802Z,97022.03
2023-05-18T22:34:52.063Z,97016.88
2023-05-18T22:37:18.977Z,97006.47
2023-05-18T22:39:46.033Z,97021.06
2023-05-18T22:42:12.887Z,97011.72
2023-05-18T22:44:39.771Z,97006.78
2023-05-18T22:47:06.815Z,97010.63
2023-05-18T22:49:35.846Z,97012.31
2023-05-18T22:52:06.520Z,97007.06
2023-05-18T22:54:33.510Z,96997.69
2023-05-18T22:57:00.402Z,97010.22
2023-05-18T22:59:28.681Z,97010.34
2023-05-18T23:01:55.742Z,97019.00
2023-05-18T23:04:22.703Z,97005.09
2023-05-18T23:06:50.788Z,97008.19
2023-05-18T23:09:18.715Z,97010.72
2023-05-18T23:11:46.341Z,97011.84
2023-05-18T23:14:14.175Z,97007.69
2023-05-18T23:16:43.070Z,97014.19
2023-05-18T23:19:12.319Z,97010.78
2023-05-18T23:21:42.649Z,97003.06
2023-05-18T23:24:12.048Z,97010.97
2023-05-18T23:26:42.766Z,97008.94
2023-05-18T23:29:09.914Z,97007.94
2023-05-18T23:31:37.623Z,97012.59
2023-05-18T23:34:04.851Z,97010.56
2023-05-18T23:36:35.489Z,97009.47
2023-05-18T23:39:03.612Z,97005.09
2023-05-18T23:41:31.938Z,97004.53
2023-05-18T23:43:59.601Z,97002.31
2023-05-18T23:46:26.852Z,96990.19
2023-05-18T23:48:54.121Z,96999.91
2023-05-18T23:51:21.599Z,96994.94
2023-05-18T23:53:50.730Z,96992.19
2023-05-18T23:56:18.395Z,96994.16
2023-05-18T23:58:46.933Z,96993.19
